createdAt,value
2022-11-29T00:01:40.362Z,52.80
2022-11-29T00:04:07.710Z,52.38
2022-11-29T00:06:36.173Z,45.75
2022-11-29T00:09:11.608Z,48.33
2022-11-29T00:11:59.879Z,42.78
2022-11-29T00:14:29.083Z,44.30
2022-11-29T00:17:02.432Z,61.13
2022-11-29T00:19:35.524Z,49.28
2022-11-29T00:22:04.431Z,59.38
2022-11-29T00:24:32.562Z,62.33
2022-11-29T00:27:00.890Z,72.47
2022-11-29T00:29:29.939Z,48.97
2022-11-29T00:31:57.220Z,50.13
2022-11-29T00:34:24.579Z,45.22
2022-11-29T00:36:51.991Z,49.42
2022-11-29T00:39:19.481Z,41.33
2022-11-29T00:41:46.690Z,51.50
2022-11-29T00:44:19.600Z,49.40
2022-11-29T00:46:48.630Z,50.95
2022-11-29T00:49:16.639Z,52.92
2022-11-29T00:51:43.918Z,43.63
2022-11-29T00:54:11.096Z,56.15
2022-11-29T00:56:38.355Z,47.15
2022-11-29T00:59:05.521Z,50.35
2022-11-29T01:01:32.748Z,54.60
2022-11-29T01:04:02.423Z,53.58
2022-11-29T01:06:29.571Z,57.30
2022-11-29T01:08:56.823Z,48.55
2022-11-29T01:11:27.542Z,57.38
2022-11-29T01:14:00.298Z,46.42
2022-11-29T01:16:30.621Z,57.42
2022-11-29T01:18:57.867Z,57.05
2022-11-29T01:21:25.400Z,53.20
2022-11-29T01:23:54.234Z,51.60
2022-11-29T01:26:27.154Z,46.25
2022-11-29T01:28:57.040Z,46.35
2022-11-29T01:31:31.134Z,58.08
2022-11-29T01:34:02.585Z,53.33
2022-11-29T01:36:30.624Z,50.22
2022-11-29T01:39:01.661Z,48.55
2022-11-29T01:41:33.527Z,44.65
2022-11-29T01:44:07.412Z,43.45
2022-11-29T01:46:42.944Z,42.80
2022-11-29T01:49:24.285Z,44.20
2022-11-29T01:52:15.037Z,46.08
2022-11-29T01:54:50.883Z,46.47
2022-11-29T01:57:19.748Z,39.08
2022-11-29T01:59:54.521Z,42.58
2022-11-29T02:02:36.839Z,43.53
2022-11-29T02:05:05.762Z,50.35
2022-11-29T02:07:33.925Z,60.42
2022-11-29T02:10:02.980Z,58.92
2022-11-29T02:13:16.587Z,52.92
2022-11-29T02:16:05.063Z,53.30
2022-11-29T02:19:11.581Z,87.32
2022-11-29T02:22:15.202Z,78.72
2022-11-29T02:25:19.786Z,69.13
2022-11-29T02:28:46.949Z,53.20
2022-11-29T02:32:01.615Z,49.80
2022-11-29T02:34:54.443Z,64.60
2022-11-29T02:38:27.068Z,66.50
2022-11-29T02:41:42.523Z,174.65
2022-11-29T02:45:08.678Z,53.60
2022-11-29T02:48:05.510Z,76.85
2022-11-29T02:51:11.403Z,62.92
2022-11-29T02:54:16.650Z,59.00
2022-11-29T02:56:58.224Z,82.95
2022-11-29T02:59:51.289Z,96.95
2022-11-29T03:03:24.189Z,48.10
2022-11-29T03:06:33.949Z,68.68
2022-11-29T03:09:32.215Z,62.28
2022-11-29T03:12:41.708Z,61.90
2022-11-29T03:15:33.442Z,60.13
2022-11-29T03:18:55.970Z,58.35
2022-11-29T03:21:44.409Z,53.08
2022-11-29T03:24:46.041Z,49.30
2022-11-29T03:27:31.316Z,68.40
2022-11-29T03:30:05.666Z,46.67
2022-11-29T03:32:53.621Z,50.47
2022-11-29T03:35:47.699Z,47.88
2022-11-29T03:38:43.964Z,40.45
2022-11-29T03:41:51.936Z,58.33
2022-11-29T03:44:33.522Z,39.80
2022-11-29T03:47:19.819Z,46.67
2022-11-29T03:50:13.318Z,39.50
2022-11-29T03:53:04.039Z,49.63
2022-11-29T03:55:54.056Z,47.40
2022-11-29T03:59:02.672Z,45.38
2022-11-29T04:02:15.007Z,44.53
2022-11-29T04:05:22.397Z,52.75
2022-11-29T04:08:17.670Z,45.53
2022-11-29T04:11:18.697Z,45.70
2022-11-29T04:14:14.550Z,49.25
2022-11-29T04:16:59.836Z,50.20
2022-11-29T04:20:07.885Z,51.65
2022-11-29T04:23:05.782Z,60.45
2022-11-29T04:25:41.758Z,51.08
2022-11-29T04:29:14.457Z,57.63
2022-11-29T04:32:10.406Z,65.90
2022-11-29T04:35:36.857Z,41.42
2022-11-29T04:38:35.484Z,54.75
2022-11-29T04:41:46.308Z,47.97
2022-11-29T04:44:50.805Z,61.10
2022-11-29T04:48:24.879Z,45.75
2022-11-29T04:52:05.706Z,65.15
2022-11-29T04:55:31.206Z,122.70
2022-11-29T04:58:41.203Z,110.45
2022-11-29T05:02:14.071Z,54.10
2022-11-29T05:04:52.874Z,62.50
2022-11-29T05:08:25.243Z,80.82
2022-11-29T05:11:35.084Z,63.05
2022-11-29T05:14:29.348Z,123.75
2022-11-29T05:17:35.974Z,73.20
2022-11-29T05:21:35.078Z,77.38
2022-11-29T05:24:47.590Z,72.50
2022-11-29T05:27:40.819Z,54.72
2022-11-29T05:30:25.580Z,66.45
2022-11-29T05:33:16.458Z,62.08
2022-11-29T05:36:01.704Z,62.30
2022-11-29T05:38:55.361Z,73.72
2022-11-29T05:42:02.763Z,69.80
2022-11-29T05:44:47.606Z,86.75
2022-11-29T05:47:35.845Z,71.82
2022-11-29T05:50:09.015Z,68.85
2022-11-29T05:53:29.274Z,79.10
2022-11-29T05:56:34.351Z,61.30
2022-11-29T05:59:15.403Z,89.63
2022-11-29T06:02:32.788Z,73.97
2022-11-29T06:05:22.932Z,66.20
2022-11-29T06:08:50.605Z,97.82
2022-11-29T06:11:53.619Z,77.78
2022-11-29T06:14:38.288Z,82.13
2022-11-29T06:17:56.028Z,96.82
2022-11-29T06:20:43.490Z,80.03
2022-11-29T06:23:58.831Z,56.05
2022-11-29T06:27:05.864Z,70.05
2022-11-29T06:30:00.212Z,63.72
2022-11-29T06:33:07.965Z,72.80
2022-11-29T06:36:22.828Z,73.47
2022-11-29T06:38:50.419Z,54.78
2022-11-29T06:41:24.879Z,74.85
2022-11-29T06:43:52.743Z,75.53
2022-11-29T06:47:05.118Z,87.72
2022-11-29T06:49:53.436Z,100.88
2022-11-29T06:52:43.002Z,78.45
2022-11-29T06:55:45.722Z,75.82
2022-11-29T06:58:48.981Z,71.05
2022-11-29T07:01:57.272Z,95.65
2022-11-29T07:05:08.611Z,66.38
2022-11-29T07:07:36.870Z,65.60
2022-11-29T07:10:09.429Z,69.10
2022-11-29T07:12:41.182Z,65.53
2022-11-29T07:15:20.703Z,63.08
2022-11-29T07:18:57.209Z,62.90
2022-11-29T07:22:04.211Z,72.85
2022-11-29T07:25:13.520Z,63.53
2022-11-29T07:28:01.134Z,63.33
2022-11-29T07:31:06.079Z,67.40
2022-11-29T07:34:31.786Z,76.97
2022-11-29T07:37:30.395Z,72.97
2022-11-29T07:40:40.284Z,58.97
2022-11-29T07:44:03.975Z,69.85
2022-11-29T07:46:31.202Z,63.50
2022-11-29T07:48:58.467Z,56.42
2022-11-29T07:51:26.114Z,56.08
2022-11-29T07:53:53.932Z,71.18
2022-11-29T07:56:21.153Z,76.10
2022-11-29T07:58:48.554Z,77.00
2022-11-29T08:01:15.813Z,79.70
2022-11-29T08:03:43.147Z,78.55
2022-11-29T08:06:10.611Z,66.43
2022-11-29T08:08:43.802Z,79.15
2022-11-29T08:11:15.377Z,69.07
2022-11-29T08:13:42.603Z,75.68
2022-11-29T08:16:15.922Z,79.72
2022-11-29T08:18:43.372Z,76.03
2022-11-29T08:21:10.600Z,81.20
2022-11-29T08:23:37.763Z,78.55
2022-11-29T08:26:06.455Z,72.80
2022-11-29T08:28:33.950Z,89.75
2022-11-29T08:31:09.535Z,85.78
2022-11-29T08:33:41.385Z,83.45
2022-11-29T08:36:13.409Z,67.80
2022-11-29T08:38:41.129Z,69.90
2022-11-29T08:41:12.946Z,76.15
2022-11-29T08:43:41.090Z,67.50
2022-11-29T08:46:11.467Z,65.30
2022-11-29T08:48:42.380Z,85.38
2022-11-29T08:51:09.681Z,63.40
2022-11-29T08:53:43.163Z,74.65
2022-11-29T08:59:06.134Z,66.18
2022-11-29T09:01:33.625Z,65.15
2022-11-29T09:04:03.098Z,55.22
2022-11-29T09:06:42.882Z,70.80
2022-11-29T09:09:10.318Z,64.00
2022-11-29T09:11:37.621Z,58.65
2022-11-29T09:14:11.661Z,54.72
2022-11-29T09:16:39.027Z,74.30
2022-11-29T09:19:07.667Z,54.00
2022-11-29T09:21:36.798Z,72.20
2022-11-29T09:24:06.496Z,69.15
2022-11-29T09:26:38.058Z,53.45
2022-11-29T09:29:07.020Z,59.17
2022-11-29T09:31:35.513Z,54.75
2022-11-29T09:34:03.065Z,54.45
2022-11-29T09:36:31.442Z,61.15
2022-11-29T09:39:02.886Z,46.65
2022-11-29T09:42:07.101Z,52.63
2022-11-29T09:45:10.786Z,45.80
2022-11-29T09:48:14.212Z,47.55
2022-11-29T09:51:12.527Z,44.42
2022-11-29T09:54:01.756Z,38.35
2022-11-29T09:56:54.507Z,46.45
2022-11-29T09:59:35.938Z,44.55
2022-11-29T10:02:49.967Z,45.83
2022-11-29T10:05:51.546Z,35.80
2022-11-29T10:08:42.012Z,39.80
2022-11-29T10:11:39.762Z,36.78
2022-11-29T10:14:26.496Z,43.55
2022-11-29T10:17:17.325Z,44.83
2022-11-29T10:19:52.935Z,32.03
2022-11-29T10:22:53.334Z,40.35
2022-11-29T10:25:54.270Z,38.20
2022-11-29T10:28:33.519Z,40.67
2022-11-29T10:31:39.275Z,38.60
2022-11-29T10:34:21.416Z,41.10
2022-11-29T10:37:02.272Z,34.83
2022-11-29T10:39:58.670Z,38.75
2022-11-29T10:42:47.491Z,35.13
2022-11-29T10:45:29.426Z,31.88
2022-11-29T10:48:08.055Z,33.50
2022-11-29T10:50:37.557Z,28.48
2022-11-29T10:53:16.630Z,26.45
2022-11-29T10:55:53.581Z,47.13
2022-11-29T10:58:28.263Z,36.45
2022-11-29T11:01:08.924Z,41.13
2022-11-29T11:03:54.400Z,42.97
2022-11-29T11:06:45.852Z,37.08
2022-11-29T11:09:50.373Z,35.45
2022-11-29T11:12:26.251Z,41.53
2022-11-29T11:15:30.175Z,37.08
2022-11-29T11:18:06.511Z,28.88
2022-11-29T11:20:41.702Z,33.10
2022-11-29T11:23:42.340Z,35.97
2022-11-29T11:26:14.690Z,33.33
2022-11-29T11:29:03.207Z,53.42
2022-11-29T11:31:40.651Z,33.50
2022-11-29T11:34:36.139Z,36.50
2022-11-29T11:37:15.364Z,36.75
2022-11-29T11:39:45.477Z,27.55
2022-11-29T11:42:39.544Z,27.23
2022-11-29T11:45:15.253Z,39.17
2022-11-29T11:48:01.988Z,33.45
2022-11-29T11:50:43.879Z,33.10
2022-11-29T11:53:35.864Z,28.70
2022-11-29T11:56:13.552Z,26.65
2022-11-29T11:59:01.607Z,25.63
2022-11-29T12:01:38.119Z,29.83
2022-11-29T12:04:37.227Z,25.83
2022-11-29T12:07:51.833Z,28.80
2022-11-29T12:10:27.194Z,40.25
2022-11-29T12:12:57.570Z,27.33
2022-11-29T12:15:50.279Z,26.30
2022-11-29T12:18:47.697Z,24.10
2022-11-29T12:21:24.285Z,23.95
2022-11-29T12:24:06.559Z,23.88
2022-11-29T12:26:58.327Z,24.83
2022-11-29T12:29:33.469Z,23.05
2022-11-29T12:32:54.981Z,26.42
2022-11-29T12:35:37.257Z,21.25
2022-11-29T12:38:33.668Z,27.65
2022-11-29T12:41:37.373Z,25.45
2022-11-29T12:44:37.821Z,23.77
2022-11-29T12:48:05.860Z,23.98
2022-11-29T12:51:14.450Z,25.20
2022-11-29T12:54:34.620Z,25.80
2022-11-29T12:57:48.403Z,28.48
2022-11-29T13:00:19.948Z,28.77
2022-11-29T13:03:32.785Z,30.45
2022-11-29T13:06:13.093Z,30.88
2022-11-29T13:09:06.032Z,33.30
2022-11-29T13:12:00.123Z,31.08
2022-11-29T13:15:13.657Z,32.10
2022-11-29T13:18:25.617Z,30.67
2022-11-29T13:21:13.972Z,29.02
2022-11-29T13:24:16.860Z,26.23
2022-11-29T13:26:47.634Z,28.20
2022-11-29T13:29:19.923Z,31.35
2022-11-29T13:31:48.179Z,32.28
2022-11-29T13:34:39.519Z,31.70
2022-11-29T13:38:01.137Z,31.90
2022-11-29T13:40:43.044Z,34.03
2022-11-29T13:43:40.913Z,32.53
2022-11-29T13:46:52.713Z,30.70
2022-11-29T13:50:26.743Z,31.85
2022-11-29T13:53:30.693Z,33.63
2022-11-29T13:56:01.889Z,32.38
2022-11-29T13:58:29.093Z,32.50
2022-11-29T14:01:05.524Z,33.33
2022-11-29T14:04:14.714Z,33.65
2022-11-29T14:06:46.003Z,34.20
2022-11-29T14:09:43.431Z,33.35
2022-11-29T14:12:41.754Z,30.92
2022-11-29T14:15:16.856Z,31.27
2022-11-29T14:18:08.898Z,31.42
2022-11-29T14:20:57.391Z,32.30
2022-11-29T14:23:38.973Z,33.45
2022-11-29T14:26:06.111Z,32.47
2022-11-29T14:28:38.704Z,35.28
2022-11-29T14:31:09.689Z,35.65
2022-11-29T14:33:57.939Z,36.10
2022-11-29T14:36:54.767Z,38.10
2022-11-29T14:39:42.147Z,39.60
2022-11-29T14:42:24.447Z,39.13
2022-11-29T14:45:06.301Z,39.50
2022-11-29T14:47:49.108Z,44.80
2022-11-29T14:50:36.528Z,40.63
2022-11-29T14:53:33.506Z,44.05
2022-11-29T14:56:32.038Z,46.17
2022-11-29T14:59:51.489Z,43.25
2022-11-29T15:03:09.258Z,41.50
2022-11-29T15:05:45.039Z,47.20
2022-11-29T15:08:32.307Z,51.35
2022-11-29T15:11:49.499Z,47.97
2022-11-29T15:14:45.786Z,45.38
2022-11-29T15:17:46.834Z,43.92
2022-11-29T15:20:50.703Z,42.97
2022-11-29T15:23:19.780Z,48.92
2022-11-29T15:26:00.522Z,44.67
2022-11-29T15:28:30.146Z,46.60
2022-11-29T15:31:13.402Z,47.45
2022-11-29T15:33:45.045Z,41.75
2022-11-29T15:36:24.305Z,41.83
2022-11-29T15:38:59.129Z,43.20
2022-11-29T15:41:35.624Z,39.55
2022-11-29T15:44:07.507Z,41.20
2022-11-29T15:46:36.112Z,42.47
2022-11-29T15:49:35.527Z,42.65
2022-11-29T15:52:14.443Z,39.55
2022-11-29T15:55:03.397Z,38.90
2022-11-29T15:57:43.054Z,37.72
2022-11-29T16:00:23.128Z,34.75
2022-11-29T16:03:06.003Z,36.40
2022-11-29T16:05:38.732Z,39.72
2022-11-29T16:08:22.580Z,38.80
2022-11-29T16:10:53.186Z,37.85
2022-11-29T16:13:39.148Z,39.33
2022-11-29T16:16:13.260Z,38.70
2022-11-29T16:18:45.723Z,40.03
2022-11-29T16:21:32.544Z,39.53
2022-11-29T16:24:21.750Z,41.80
2022-11-29T16:26:51.085Z,39.92
2022-11-29T16:29:33.853Z,40.22
2022-11-29T16:32:31.720Z,41.03
2022-11-29T16:35:23.633Z,38.85
2022-11-29T16:37:51.635Z,38.97
2022-11-29T16:40:35.385Z,39.58
2022-11-29T16:43:47.465Z,40.78
2022-11-29T16:46:20.717Z,40.55
2022-11-29T16:48:51.200Z,40.63
2022-11-29T16:51:39.851Z,36.60
2022-11-29T16:54:27.933Z,34.33
2022-11-29T16:56:57.236Z,31.55
2022-11-29T16:59:28.369Z,34.17
2022-11-29T17:01:57.137Z,36.63
2022-11-29T17:04:25.723Z,36.90
2022-11-29T17:06:57.417Z,34.28
2022-11-29T17:09:32.511Z,36.55
2022-11-29T17:12:01.991Z,36.30
2022-11-29T17:14:30.202Z,34.90
2022-11-29T17:17:02.181Z,34.42
2022-11-29T17:19:30.694Z,38.28
2022-11-29T17:21:58.697Z,37.88
2022-11-29T17:24:26.125Z,33.67
2022-11-29T17:26:53.311Z,35.05
2022-11-29T17:29:20.603Z,34.00
2022-11-29T17:31:50.473Z,39.42
2022-11-29T17:34:17.954Z,33.38
2022-11-29T17:36:46.438Z,34.42
2022-11-29T17:39:15.792Z,33.08
2022-11-29T17:41:43.105Z,35.53
2022-11-29T17:44:10.250Z,36.17
2022-11-29T17:46:37.937Z,36.92
2022-11-29T17:49:09.541Z,34.22
2022-11-29T17:51:55.491Z,38.03
2022-11-29T17:54:23.410Z,31.67
2022-11-29T17:56:51.890Z,35.50
2022-11-29T17:59:19.455Z,36.45
2022-11-29T18:01:49.626Z,36.58
2022-11-29T18:04:17.107Z,33.85
2022-11-29T18:06:49.668Z,37.38
2022-11-29T18:09:19.452Z,36.05
2022-11-29T18:11:50.168Z,40.42
2022-11-29T18:14:24.213Z,35.30
2022-11-29T18:16:52.067Z,33.65
2022-11-29T18:19:22.770Z,34.47
2022-11-29T18:21:51.260Z,38.15
2022-11-29T18:24:19.393Z,37.15
2022-11-29T18:26:47.115Z,38.13
2022-11-29T18:29:14.842Z,40.25
2022-11-29T18:31:46.053Z,38.22
2022-11-29T18:34:14.973Z,40.72
2022-11-29T18:36:51.029Z,34.47
2022-11-29T18:39:20.222Z,37.75
2022-11-29T18:41:50.335Z,41.25
2022-11-29T18:44:29.505Z,41.50
2022-11-29T18:46:57.742Z,40.40
2022-11-29T18:49:24.947Z,36.78
2022-11-29T18:51:52.188Z,38.88
2022-11-29T18:54:19.597Z,39.35
2022-11-29T18:56:46.902Z,38.00
2022-11-29T18:59:17.821Z,39.28
2022-11-29T19:01:48.314Z,40.28
2022-11-29T19:04:21.377Z,39.45
2022-11-29T19:06:49.405Z,39.72
2022-11-29T19:09:22.219Z,43.42
2022-11-29T19:11:50.605Z,43.03
2022-11-29T19:14:19.380Z,41.17
2022-11-29T19:16:49.399Z,41.17
2022-11-29T19:19:18.897Z,41.85
2022-11-29T19:21:46.107Z,44.85
2022-11-29T19:24:17.578Z,43.28
2022-11-29T19:26:47.973Z,44.40
2022-11-29T19:29:16.192Z,46.17
2022-11-29T19:31:43.580Z,44.67
2022-11-29T19:34:11.331Z,43.65
2022-11-29T19:36:43.294Z,45.05
2022-11-29T19:39:17.183Z,50.17
2022-11-29T19:41:47.729Z,50.38
2022-11-29T19:44:15.583Z,51.33
2022-11-29T19:46:48.756Z,54.08
2022-11-29T19:49:16.194Z,61.05
2022-11-29T19:51:43.763Z,54.35
2022-11-29T19:54:12.034Z,63.95
2022-11-29T19:56:39.982Z,54.75
2022-11-29T19:59:08.758Z,48.25
2022-11-29T20:01:41.274Z,54.65
2022-11-29T20:04:13.721Z,51.53
2022-11-29T20:06:42.874Z,52.25
2022-11-29T20:09:13.472Z,56.47
2022-11-29T20:11:41.742Z,47.55
2022-11-29T20:14:12.838Z,45.88
2022-11-29T20:16:40.813Z,49.80
2022-11-29T20:19:14.158Z,48.90
2022-11-29T20:21:48.830Z,53.47
2022-11-29T20:24:17.787Z,48.92
2022-11-29T20:26:49.014Z,44.15
2022-11-29T20:29:17.120Z,51.40
2022-11-29T20:31:50.217Z,51.00
2022-11-29T20:34:20.094Z,45.00
2022-11-29T20:37:36.783Z,44.38
2022-11-29T20:40:19.355Z,48.65
2022-11-29T20:43:37.823Z,42.20
2022-11-29T20:46:05.599Z,51.67
2022-11-29T20:48:33.280Z,43.72
2022-11-29T20:51:02.684Z,58.25
2022-11-29T20:53:40.311Z,46.70
2022-11-29T20:56:09.804Z,62.70
2022-11-29T20:58:38.485Z,53.83
2022-11-29T21:01:07.427Z,50.92
2022-11-29T21:03:34.823Z,61.45
2022-11-29T21:06:05.864Z,52.28
2022-11-29T21:08:34.729Z,58.50
2022-11-29T21:11:07.426Z,52.03
2022-11-29T21:13:37.215Z,58.72
2022-11-29T21:16:05.471Z,68.43
2022-11-29T21:18:33.911Z,58.50
2022-11-29T21:21:54.016Z,64.30
2022-11-29T21:25:05.309Z,64.53
2022-11-29T21:27:35.356Z,60.40
2022-11-29T21:30:18.971Z,51.95
2022-11-29T21:32:47.577Z,55.35
2022-11-29T21:35:16.293Z,63.55
2022-11-29T21:37:45.526Z,58.53
2022-11-29T21:40:14.638Z,51.70
2022-11-29T21:42:42.267Z,53.03
2022-11-29T21:45:15.247Z,55.70
2022-11-29T21:47:44.615Z,50.45
2022-11-29T21:50:13.757Z,54.95
2022-11-29T21:52:41.396Z,50.78
2022-11-29T21:55:09.334Z,50.42
2022-11-29T21:57:37.616Z,54.70
2022-11-29T22:00:06.972Z,51.55
2022-11-29T22:02:34.281Z,52.28
2022-11-29T22:05:01.565Z,47.95
2022-11-29T22:07:28.766Z,51.38
2022-11-29T22:09:55.981Z,52.58
2022-11-29T22:12:38.282Z,49.15
2022-11-29T22:15:06.293Z,48.40
2022-11-29T22:17:33.464Z,48.60
2022-11-29T22:20:00.583Z,50.28
2022-11-29T22:22:28.337Z,48.28
2022-11-29T22:24:55.597Z,49.95
2022-11-29T22:27:22.755Z,46.72
2022-11-29T22:29:49.982Z,51.40
2022-11-29T22:32:17.174Z,49.70
2022-11-29T22:34:44.853Z,49.80
2022-11-29T22:37:12.527Z,50.15
2022-11-29T22:39:39.689Z,49.45
2022-11-29T22:42:07.756Z,51.92
2022-11-29T22:44:35.065Z,48.78
2022-11-29T22:47:02.376Z,50.83
2022-11-29T22:49:30.075Z,52.67
2022-11-29T22:51:57.244Z,48.85
2022-11-29T22:54:24.557Z,51.47
2022-11-29T22:56:52.424Z,51.45
2022-11-29T22:59:19.616Z,46.67
2022-11-29T23:01:47.095Z,48.15
2022-11-29T23:04:14.418Z,49.42
2022-11-29T23:06:45.979Z,48.00
2022-11-29T23:09:22.085Z,44.83
2022-11-29T23:11:56.111Z,48.20
2022-11-29T23:14:24.437Z,40.92
2022-11-29T23:16:52.702Z,46.55
2022-11-29T23:19:20.712Z,42.53
2022-11-29T23:21:48.087Z,36.63
2022-11-29T23:24:16.215Z,38.95
2022-11-29T23:26:47.305Z,40.25
2022-11-29T23:29:18.837Z,36.72
2022-11-29T23:31:47.707Z,34.78
2022-11-29T23:34:15.559Z,38.33
2022-11-29T23:36:44.804Z,34.35
2022-11-29T23:39:15.541Z,33.97
2022-11-29T23:41:43.756Z,32.53
2022-11-29T23:44:11.116Z,32.30
2022-11-29T23:46:38.394Z,31.08
2022-11-29T23:49:05.561Z,32.78
2022-11-29T23:51:33.170Z,32.85
2022-11-29T23:54:00.383Z,32.83
2022-11-29T23:56:27.971Z,30.85
2022-11-29T23:58:55.350Z,32.83
